Time;durP1;ratioP1;P1;durP2;ratioP2;P2;SDS_P1;SDS_P2;PMS_P1;PMS_P2;Temp;Humidity;BMP_temperature;BMP_pressure;BME280_temperature;BME280_humidity;BME280_pressure;Samples;Min_cycle;Max_cycle;Signal;HPM_P1;HPM_P2
2023/09/10 00:01:47;;;;;;;8.95;3.90;;;27.60;45.70;;;;;;7545921;23;20014;-79
2023/09/10 00:04:47;;;;;;;6.15;3.72;;;27.50;45.80;;;;;;7569946;23;20049;-78
2023/09/10 00:07:48;;;;;;;7.72;4.03;;;27.40;45.80;;;;;;7570218;23;20089;-78
2023/09/10 00:10:49;;;;;;;7.25;4.10;;;27.40;45.80;;;;;;7570286;23;20081;-78
2023/09/10 00:13:50;;;;;;;5.32;3.75;;;27.40;45.90;;;;;;7570303;23;20009;-79
2023/09/10 00:16:51;;;;;;;6.50;4.10;;;27.30;46.20;;;;;;7569618;23;20026;-79
2023/09/10 00:19:51;;;;;;;9.38;4.28;;;27.30;46.40;;;;;;7569489;23;20093;-79
2023/09/10 00:22:52;;;;;;;5.28;3.92;;;27.20;46.40;;;;;;7596369;23;20626;-79
2023/09/10 00:25:56;;;;;;;6.90;4.13;;;27.20;46.40;;;;;;7596132;23;20017;-79
2023/09/10 00:28:57;;;;;;;8.43;4.13;;;27.20;46.50;;;;;;7569296;23;20017;-79
2023/09/10 00:31:58;;;;;;;9.23;4.05;;;27.10;46.60;;;;;;7596306;23;20032;-78
2023/09/10 00:34:59;;;;;;;9.80;4.45;;;27.10;46.70;;;;;;7571506;23;20009;-78
2023/09/10 00:37:59;;;;;;;4.40;3.35;;;27.10;46.80;;;;;;7571115;23;20112;-77
2023/09/10 00:41:00;;;;;;;7.05;4.22;;;27.10;46.90;;;;;;7596003;23;20265;-79
2023/09/10 00:44:02;;;;;;;7.03;4.40;;;27.10;47.00;;;;;;7570269;23;20061;-77
2023/09/10 00:47:04;;;;;;;6.07;4.28;;;27.00;47.10;;;;;;7570997;23;20104;-78
2023/09/10 00:50:06;;;;;;;10.38;4.25;;;26.90;47.20;;;;;;7569940;23;20014;-78
2023/09/10 00:53:08;;;;;;;6.30;3.95;;;26.80;47.30;;;;;;7596138;23;20017;-78
2023/09/10 00:56:10;;;;;;;8.20;4.68;;;26.80;47.50;;;;;;7569736;23;20014;-78
2023/09/10 00:59:11;;;;;;;9.48;4.10;;;26.70;47.60;;;;;;7570871;23;20084;-80
2023/09/10 01:02:14;;;;;;;5.78;4.07;;;26.70;47.70;;;;;;7570882;23;20009;-78
2023/09/10 01:05:16;;;;;;;8.27;4.45;;;26.60;47.80;;;;;;7570361;23;20407;-79
2023/09/10 01:08:17;;;;;;;7.55;4.05;;;26.60;47.90;;;;;;7570100;23;20037;-79
2023/09/10 01:11:53;;;;;;;7.90;4.40;;;26.50;48.00;;;;;;7571003;23;20044;-79
2023/09/10 01:15:08;;;;;;;7.53;4.30;;;26.50;48.20;;;;;;7570504;23;20018;-78
2023/09/10 01:18:15;;;;;;;6.65;4.45;;;26.60;48.20;;;;;;7570012;23;20088;-79
2023/09/10 01:21:38;;;;;;;7.68;4.72;;;26.60;48.20;;;;;;7569759;23;20041;-79
2023/09/10 01:24:49;;;;;;;9.50;4.57;;;26.50;48.30;;;;;;7570607;23;20088;-78
2023/09/10 01:27:50;;;;;;;9.43;4.80;;;26.40;48.40;;;;;;7570555;23;20145;-79
2023/09/10 01:30:51;;;;;;;7.50;4.65;;;26.40;48.60;;;;;;7570786;23;20026;-80
2023/09/10 01:33:57;;;;;;;10.73;4.78;;;26.30;48.70;;;;;;7570520;23;20446;-77
2023/09/10 01:37:12;;;;;;;6.35;4.38;;;26.30;48.80;;;;;;7547047;23;20153;-79
2023/09/10 01:40:17;;;;;;;9.98;4.95;;;26.30;48.90;;;;;;7572056;23;20014;-78
2023/09/10 01:43:19;;;;;;;9.23;4.70;;;26.30;49.10;;;;;;7597907;23;20053;-78
2023/09/10 01:46:22;;;;;;;9.82;4.65;;;26.20;49.00;;;;;;7570925;23;20010;-78
2023/09/10 01:49:22;;;;;;;13.25;4.65;;;26.30;49.10;;;;;;7570184;23;20036;-79
2023/09/10 01:52:23;;;;;;;11.73;4.88;;;26.30;49.10;;;;;;7596948;23;20053;-78
2023/09/10 01:55:25;;;;;;;8.02;4.85;;;26.30;49.20;;;;;;7598402;23;20017;-79
2023/09/10 01:58:25;;;;;;;6.03;4.20;;;26.20;49.20;;;;;;7573373;23;20014;-78
2023/09/10 02:01:26;;;;;;;10.38;4.47;;;26.20;49.30;;;;;;7573849;23;20014;-78
2023/09/10 02:04:27;;;;;;;9.43;4.72;;;26.20;49.30;;;;;;7572221;23;20041;-78
2023/09/10 02:07:28;;;;;;;10.65;4.18;;;26.20;49.50;;;;;;7572362;23;20009;-79
2023/09/10 02:10:29;;;;;;;9.05;4.72;;;26.10;49.50;;;;;;7572616;23;20144;-78
2023/09/10 02:13:29;;;;;;;7.22;4.68;;;26.10;49.60;;;;;;7573989;23;20428;-78
2023/09/10 02:16:30;;;;;;;8.80;4.22;;;26.10;49.70;;;;;;7597322;23;20160;-80
2023/09/10 02:19:33;;;;;;;10.93;5.30;;;26.00;49.70;;;;;;7572195;23;20018;-79
2023/09/10 02:22:33;;;;;;;10.13;4.15;;;26.00;49.80;;;;;;7573034;23;20002;-78
2023/09/10 02:25:34;;;;;;;9.18;4.07;;;26.00;49.90;;;;;;7572925;23;20107;-79
2023/09/10 02:28:35;;;;;;;6.55;4.68;;;26.00;49.90;;;;;;7598757;23;20089;-78
2023/09/10 02:31:36;;;;;;;6.03;4.53;;;26.00;50.00;;;;;;7574255;23;20021;-78
2023/09/10 02:34:37;;;;;;;6.60;4.65;;;26.00;50.10;;;;;;7572889;23;20373;-79
2023/09/10 02:37:38;;;;;;;9.32;4.95;;;26.00;50.70;;;;;;7573535;23;20116;-78
2023/09/10 02:40:38;;;;;;;6.53;4.90;;;26.00;50.10;;;;;;7571231;23;20025;-78
2023/09/10 02:43:39;;;;;;;7.35;4.53;;;26.00;50.10;;;;;;7573013;23;20014;-79
2023/09/10 02:46:40;;;;;;;10.68;5.20;;;26.00;50.20;;;;;;7573084;23;20095;-78
2023/09/10 02:49:41;;;;;;;10.05;4.55;;;26.00;50.10;;;;;;7573245;23;20466;-78
2023/09/10 02:52:42;;;;;;;14.00;4.97;;;26.00;50.00;;;;;;7573959;23;20068;-80
2023/09/10 02:55:42;;;;;;;6.10;4.75;;;26.00;49.90;;;;;;7573430;23;20076;-79
2023/09/10 02:58:43;;;;;;;9.02;4.60;;;26.00;50.00;;;;;;7571699;23;20009;-80
2023/09/10 03:01:44;;;;;;;5.22;4.07;;;26.00;49.90;;;;;;7571587;23;20010;-79
2023/09/10 03:04:45;;;;;;;7.10;4.32;;;26.00;49.90;;;;;;7599056;23;20005;-79
2023/09/10 03:07:46;;;;;;;9.02;4.43;;;26.00;50.60;;;;;;7572098;23;20014;-78
2023/09/10 03:10:46;;;;;;;8.27;5.35;;;26.00;49.90;;;;;;7572782;23;20021;-78
2023/09/10 03:13:47;;;;;;;7.45;4.85;;;25.90;49.90;;;;;;7572092;23;20172;-78
2023/09/10 03:16:49;;;;;;;6.65;4.53;;;25.90;49.80;;;;;;7571179;23;20500;-79
2023/09/10 03:19:50;;;;;;;6.47;4.10;;;25.90;49.90;;;;;;7571246;23;20100;-79
2023/09/10 03:22:57;;;;;;;11.75;4.90;;;25.90;49.90;;;;;;7572565;23;20048;-79
2023/09/10 03:25:59;;;;;;;8.18;4.35;;;25.90;49.90;;;;;;7598195;23;20006;-78
2023/09/10 03:29:00;;;;;;;7.25;4.10;;;25.90;50.00;;;;;;7572474;23;20045;-80
2023/09/10 03:32:04;;;;;;;7.43;4.50;;;25.90;50.00;;;;;;7595647;23;20476;-79
2023/09/10 03:35:06;;;;;;;7.43;5.13;;;25.80;50.00;;;;;;7572285;23;20389;-79
2023/09/10 03:38:07;;;;;;;10.60;5.28;;;25.80;50.10;;;;;;7572276;23;20332;-79
2023/09/10 03:41:07;;;;;;;8.57;4.60;;;25.80;50.20;;;;;;7572004;23;20021;-80
2023/09/10 03:44:08;;;;;;;6.90;4.20;;;25.80;50.20;;;;;;7571821;23;20013;-79
2023/09/10 03:47:09;;;;;;;8.05;4.80;;;25.70;50.10;;;;;;7570644;23;20435;-78
2023/09/10 03:50:11;;;;;;;8.63;5.32;;;25.70;50.10;;;;;;7570966;23;20643;-79
2023/09/10 03:53:13;;;;;;;6.53;4.82;;;25.70;50.20;;;;;;7570767;23;20458;-80
2023/09/10 03:56:14;;;;;;;7.03;4.72;;;25.70;50.70;;;;;;7595394;23;20014;-79
2023/09/10 03:59:15;;;;;;;9.43;5.60;;;25.70;51.00;;;;;;7570856;23;20138;-78
2023/09/10 04:02:16;;;;;;;7.25;5.07;;;25.70;51.20;;;;;;7570388;23;20067;-80
2023/09/10 04:05:17;;;;;;;7.60;5.43;;;25.70;51.50;;;;;;7594804;23;20380;-78
2023/09/10 04:08:18;;;;;;;10.93;5.10;;;25.70;51.70;;;;;;7570194;23;20006;-77
2023/09/10 04:11:19;;;;;;;11.05;5.32;;;25.60;51.80;;;;;;7570363;23;20013;-80
2023/09/10 04:14:20;;;;;;;10.13;5.35;;;25.60;51.90;;;;;;7571958;23;20014;-79
2023/09/10 04:17:21;;;;;;;9.45;5.75;;;25.60;51.90;;;;;;7598551;23;20134;-79
2023/09/10 04:20:22;;;;;;;11.32;5.95;;;25.60;52.00;;;;;;7572664;23;20010;-79
2023/09/10 04:23:23;;;;;;;8.57;5.55;;;25.60;52.10;;;;;;7572357;23;20172;-78
2023/09/10 04:26:24;;;;;;;6.90;5.00;;;25.50;52.20;;;;;;7598774;23;20006;-80
2023/09/10 04:29:25;;;;;;;10.48;5.65;;;25.50;52.30;;;;;;7571394;23;20092;-78
2023/09/10 04:32:26;;;;;;;7.43;4.97;;;25.40;52.30;;;;;;7571991;23;20097;-80
2023/09/10 04:35:27;;;;;;;9.35;5.30;;;25.40;52.50;;;;;;7571103;23;20020;-78
2023/09/10 04:38:27;;;;;;;12.73;5.20;;;25.40;52.60;;;;;;7572010;23;20163;-78
2023/09/10 04:41:28;;;;;;;12.18;5.60;;;25.40;52.80;;;;;;7571020;23;20017;-78
2023/09/10 04:44:29;;;;;;;11.02;5.10;;;25.40;53.10;;;;;;7571592;23;20014;-79
2023/09/10 04:47:30;;;;;;;8.98;5.43;;;25.30;53.10;;;;;;7572048;23;20010;-78
2023/09/10 04:50:32;;;;;;;9.40;5.50;;;25.30;53.30;;;;;;7572135;23;20014;-79
2023/09/10 04:53:35;;;;;;;8.90;5.63;;;25.30;53.40;;;;;;7571960;23;20109;-79
2023/09/10 04:56:36;;;;;;;8.98;5.65;;;25.20;53.40;;;;;;7571395;23;20088;-78
2023/09/10 04:59:37;;;;;;;8.00;5.72;;;25.20;53.40;;;;;;7547576;23;20017;-78
2023/09/10 05:02:38;;;;;;;15.05;5.60;;;25.20;53.40;;;;;;7571505;23;20009;-79
2023/09/10 05:05:39;;;;;;;9.82;6.10;;;25.20;53.40;;;;;;7571793;23;20097;-78
2023/09/10 05:08:40;;;;;;;12.18;6.22;;;25.20;53.50;;;;;;7571879;23;20020;-79
2023/09/10 05:11:41;;;;;;;10.70;5.57;;;25.30;53.50;;;;;;7570824;23;20092;-78
2023/09/10 05:14:41;;;;;;;8.48;5.50;;;25.20;53.40;;;;;;7570931;23;20017;-80
2023/09/10 05:17:43;;;;;;;11.93;5.65;;;25.20;53.30;;;;;;7571159;23;20010;-78
2023/09/10 05:20:43;;;;;;;8.15;5.18;;;25.20;53.40;;;;;;7570819;23;20037;-78
2023/09/10 05:23:44;;;;;;;12.02;5.40;;;25.20;53.50;;;;;;7572214;23;20006;-78
2023/09/10 05:26:45;;;;;;;9.85;5.78;;;25.20;53.70;;;;;;7572347;23;20013;-78
2023/09/10 05:29:46;;;;;;;10.35;5.63;;;25.20;53.90;;;;;;7571792;23;20018;-79
2023/09/10 05:32:47;;;;;;;8.00;5.30;;;25.10;53.90;;;;;;7571492;23;20025;-78
2023/09/10 05:35:57;;;;;;;16.25;5.97;;;25.10;53.90;;;;;;7596093;23;20010;-77
2023/09/10 05:38:59;;;;;;;9.25;5.30;;;25.10;54.10;;;;;;7570979;23;20703;-77
2023/09/10 05:42:00;;;;;;;8.00;5.20;;;25.10;54.10;;;;;;7546759;23;20009;-79
2023/09/10 05:45:00;;;;;;;11.00;5.28;;;25.00;54.20;;;;;;7597931;23;20850;-77
2023/09/10 05:48:02;;;;;;;7.25;4.80;;;24.90;54.30;;;;;;7570507;23;20109;-78
2023/09/10 05:51:03;;;;;;;12.05;5.38;;;24.90;54.40;;;;;;7595829;23;20061;-79
2023/09/10 05:54:05;;;;;;;11.75;5.60;;;24.90;54.30;;;;;;7547583;23;20014;-77
2023/09/10 05:57:06;;;;;;;10.38;5.97;;;24.90;54.40;;;;;;7599482;23;20006;-80
2023/09/10 06:00:07;;;;;;;9.27;5.63;;;24.90;54.40;;;;;;7570311;23;20092;-78
2023/09/10 06:03:16;;;;;;;11.73;6.03;;;24.90;54.40;;;;;;7596769;23;20125;-80
2023/09/10 06:06:17;;;;;;;9.63;5.82;;;24.90;54.40;;;;;;7570555;23;20010;-79
2023/09/10 06:09:18;;;;;;;11.10;5.15;;;25.00;54.50;;;;;;7572129;23;20080;-79
2023/09/10 06:12:18;;;;;;;8.15;5.60;;;24.90;54.50;;;;;;7598148;23;20054;-78
2023/09/10 06:15:19;;;;;;;13.73;5.13;;;24.90;54.60;;;;;;7571233;23;20013;-79
2023/09/10 06:18:21;;;;;;;9.95;6.35;;;24.90;54.70;;;;;;7570782;23;20132;-79
2023/09/10 06:21:22;;;;;;;8.82;5.43;;;24.90;54.80;;;;;;7597111;23;20297;-78
2023/09/10 06:24:23;;;;;;;9.98;5.70;;;24.90;54.70;;;;;;7546943;23;20010;-78
2023/09/10 06:27:24;;;;;;;8.80;5.82;;;24.90;54.80;;;;;;7571790;23;20033;-79
2023/09/10 06:30:25;;;;;;;8.63;6.38;;;24.90;54.90;;;;;;7572372;23;20006;-79
2023/09/10 06:33:26;;;;;;;8.18;5.80;;;24.90;54.90;;;;;;7570082;23;20025;-78
2023/09/10 06:36:27;;;;;;;9.48;5.97;;;24.90;55.00;;;;;;7571089;23;20343;-79
2023/09/10 06:39:28;;;;;;;8.88;6.13;;;24.90;55.00;;;;;;7571928;23;20017;-79
2023/09/10 06:42:29;;;;;;;8.73;5.70;;;24.90;55.00;;;;;;7573248;23;20042;-79
2023/09/10 06:45:43;;;;;;;11.13;5.85;;;25.00;55.10;;;;;;7552308;23;20077;-78
2023/09/10 06:48:44;;;;;;;9.73;6.22;;;25.00;55.20;;;;;;7574190;23;20009;-79
2023/09/10 06:51:45;;;;;;;10.27;5.88;;;25.00;55.20;;;;;;7572632;23;20288;-79
2023/09/10 06:54:46;;;;;;;13.70;6.53;;;25.00;55.20;;;;;;7575475;23;20036;-79
2023/09/10 06:57:47;;;;;;;9.70;5.72;;;25.10;55.20;;;;;;7600948;23;20049;-79
2023/09/10 07:00:49;;;;;;;8.15;5.72;;;25.10;55.10;;;;;;7549853;23;20419;-79
2023/09/10 07:03:52;;;;;;;15.07;6.22;;;25.20;54.90;;;;;;7574488;23;20020;-80
2023/09/10 07:06:53;;;;;;;11.38;6.47;;;25.30;54.90;;;;;;7573462;23;20029;-79
2023/09/10 07:09:54;;;;;;;11.10;6.63;;;25.30;54.70;;;;;;7572361;23;20018;-78
2023/09/10 07:12:54;;;;;;;13.63;6.28;;;25.40;54.50;;;;;;7573781;23;20351;-79
2023/09/10 07:15:55;;;;;;;10.90;6.65;;;25.50;54.40;;;;;;7572843;23;20105;-79
2023/09/10 07:18:56;;;;;;;9.50;6.10;;;25.50;54.30;;;;;;7573983;23;20034;-78
2023/09/10 07:21:58;;;;;;;9.00;5.97;;;25.60;54.10;;;;;;7573336;23;20010;-79
2023/09/10 07:24:58;;;;;;;13.10;5.95;;;25.70;54.00;;;;;;7597522;23;20099;-79
2023/09/10 07:27:59;;;;;;;11.20;6.68;;;25.80;53.90;;;;;;7574243;23;20152;-79
2023/09/10 07:31:00;;;;;;;8.75;6.03;;;25.90;53.70;;;;;;7573978;23;20014;-80
2023/09/10 07:34:02;;;;;;;10.73;6.20;;;26.10;53.60;;;;;;7572499;23;20048;-79
2023/09/10 07:37:03;;;;;;;11.98;6.28;;;26.20;54.00;;;;;;7572243;23;20010;-79
2023/09/10 07:40:04;;;;;;;11.48;6.50;;;26.30;53.10;;;;;;7573069;23;20010;-79
2023/09/10 07:43:05;;;;;;;17.63;6.13;;;26.50;52.90;;;;;;7549351;23;20014;-80
2023/09/10 07:46:06;;;;;;;17.40;5.93;;;26.60;52.60;;;;;;7549466;23;20021;-80
2023/09/10 07:49:07;;;;;;;23.52;6.25;;;26.80;52.30;;;;;;7572476;23;20029;-80
2023/09/10 07:52:07;;;;;;;10.23;6.38;;;26.80;52.00;;;;;;7572862;23;20092;-78
2023/09/10 07:55:08;;;;;;;15.43;6.10;;;26.90;51.80;;;;;;7573602;23;20014;-79
2023/09/10 07:58:09;;;;;;;13.10;6.60;;;27.00;51.50;;;;;;7572634;23;20038;-79
2023/09/10 08:01:10;;;;;;;9.05;6.30;;;27.10;51.20;;;;;;7572360;23;20506;-80
2023/09/10 08:04:11;;;;;;;10.75;6.22;;;27.20;50.80;;;;;;7572851;23;20032;-79
2023/09/10 08:07:12;;;;;;;12.35;6.60;;;27.30;50.40;;;;;;7600614;23;20084;-80
2023/09/10 08:10:13;;;;;;;11.15;6.65;;;27.40;50.30;;;;;;7571945;23;20095;-80
2023/09/10 08:13:14;;;;;;;16.33;5.85;;;27.50;50.20;;;;;;7599111;23;20056;-78
2023/09/10 08:16:15;;;;;;;9.10;6.13;;;27.70;50.00;;;;;;7599536;23;20013;-78
2023/09/10 08:19:16;;;;;;;10.88;5.57;;;27.70;49.40;;;;;;7598510;23;20099;-80
2023/09/10 08:22:17;;;;;;;9.30;5.88;;;27.80;49.20;;;;;;7572556;23;20010;-78
2023/09/10 08:25:18;;;;;;;10.35;6.20;;;28.00;49.00;;;;;;7570904;23;20001;-80
2023/09/10 08:28:19;;;;;;;14.50;6.78;;;28.10;48.60;;;;;;7598407;23;20006;-78
2023/09/10 08:31:20;;;;;;;14.85;6.70;;;28.20;48.50;;;;;;7572903;23;20010;-80
2023/09/10 08:34:22;;;;;;;13.50;6.55;;;28.40;48.50;;;;;;7597310;23;20081;-78
2023/09/10 08:37:22;;;;;;;8.05;5.43;;;28.50;48.20;;;;;;7596110;23;20020;-79
2023/09/10 08:40:24;;;;;;;8.43;5.88;;;28.60;47.60;;;;;;7570320;23;20010;-80
2023/09/10 08:43:41;;;;;;;8.05;5.70;;;28.70;47.40;;;;;;7572763;23;20014;-79
2023/09/10 08:46:43;;;;;;;11.75;6.50;;;28.80;47.30;;;;;;7571300;23;20018;-78
2023/09/10 08:49:47;;;;;;;10.23;6.53;;;28.80;47.10;;;;;;7570356;23;20010;-79
2023/09/10 08:52:49;;;;;;;10.25;5.95;;;29.00;47.00;;;;;;7570706;23;20472;-80
2023/09/10 08:55:50;;;;;;;11.35;5.60;;;29.10;46.60;;;;;;7571010;23;20057;-77
2023/09/10 08:58:53;;;;;;;8.68;5.82;;;29.10;46.30;;;;;;7572198;23;20021;-79
2023/09/10 09:01:56;;;;;;;10.50;5.55;;;29.30;46.00;;;;;;7598484;23;20620;-79
2023/09/10 09:04:57;;;;;;;8.38;5.80;;;29.40;45.90;;;;;;7598630;23;20439;-81
2023/09/10 09:08:10;;;;;;;9.05;6.38;;;29.60;45.50;;;;;;7574168;23;20017;-78
2023/09/10 09:11:13;;;;;;;9.23;5.45;;;29.70;45.30;;;;;;7600982;23;20634;-79
2023/09/10 09:14:15;;;;;;;11.10;5.68;;;29.70;45.20;;;;;;7600413;23;20010;-79
2023/09/10 09:17:16;;;;;;;9.50;5.50;;;29.80;44.90;;;;;;7548579;23;20333;-79
2023/09/10 09:20:19;;;;;;;10.13;5.45;;;29.80;44.50;;;;;;7594890;23;20074;-79
2023/09/10 09:23:25;;;;;;;9.50;5.78;;;29.80;44.60;;;;;;7594580;23;20168;-78
2023/09/10 09:26:30;;;;;;;8.77;6.13;;;29.90;44.50;;;;;;7595456;23;20009;-79
2023/09/10 09:29:31;;;;;;;8.98;5.80;;;29.80;44.40;;;;;;7595175;23;20017;-78
2023/09/10 09:32:37;;;;;;;8.35;5.45;;;29.90;44.40;;;;;;7595238;23;20707;-79
2023/09/10 09:35:38;;;;;;;9.93;5.72;;;30.10;44.20;;;;;;7570328;23;20092;-78
2023/09/10 09:38:47;;;;;;;7.57;5.25;;;30.20;44.00;;;;;;7571500;23;20089;-79
2023/09/10 09:41:51;;;;;;;10.00;5.72;;;30.30;43.60;;;;;;7571021;23;20010;-78
2023/09/10 09:44:54;;;;;;;8.27;5.15;;;30.50;43.40;;;;;;7597598;23;20006;-80
2023/09/10 09:47:55;;;;;;;9.55;5.60;;;30.60;43.30;;;;;;7571284;23;20414;-79
2023/09/10 09:50:56;;;;;;;11.43;5.45;;;30.70;42.90;;;;;;7595759;23;20021;-78
2023/09/10 09:53:57;;;;;;;7.25;4.97;;;30.80;42.20;;;;;;7597194;23;20066;-78
2023/09/10 09:56:58;;;;;;;8.93;5.55;;;30.80;41.90;;;;;;7571469;23;20424;-79
2023/09/10 09:59:59;;;;;;;6.47;4.75;;;30.90;41.90;;;;;;7598626;23;20032;-79
2023/09/10 10:02:59;;;;;;;16.45;5.30;;;30.90;41.30;;;;;;7572696;23;20002;-79
2023/09/10 10:06:02;;;;;;;7.18;4.65;;;31.00;41.20;;;;;;7570565;23;20057;-79
2023/09/10 10:09:03;;;;;;;10.20;5.47;;;31.00;41.00;;;;;;7569889;23;20010;-78
2023/09/10 10:12:05;;;;;;;8.65;5.45;;;31.10;41.10;;;;;;7570039;23;20093;-77
2023/09/10 10:15:08;;;;;;;7.13;5.03;;;31.20;41.20;;;;;;7571938;23;20081;-78
2023/09/10 10:18:10;;;;;;;6.93;5.18;;;31.30;41.00;;;;;;7603083;23;20032;-79
2023/09/10 10:21:12;;;;;;;9.18;5.57;;;31.40;40.80;;;;;;7576431;23;20811;-77
2023/09/10 10:24:15;;;;;;;11.98;4.90;;;31.50;40.30;;;;;;7575912;23;20044;-78
2023/09/10 10:27:18;;;;;;;7.82;5.15;;;31.70;40.20;;;;;;7600262;23;20037;-79
2023/09/10 10:30:21;;;;;;;12.07;4.88;;;31.50;39.80;;;;;;7572125;23;20017;-77
2023/09/10 10:33:24;;;;;;;6.60;5.05;;;31.50;39.90;;;;;;7571570;23;20104;-78
2023/09/10 10:36:31;;;;;;;7.72;4.88;;;31.60;40.00;;;;;;7572243;23;20064;-77
2023/09/10 10:40:10;;;;;;;9.30;5.03;;;31.70;39.80;;;;;;7571942;23;20018;-79
2023/09/10 10:43:24;;;;;;;7.85;4.95;;;32.00;39.60;;;;;;7599927;23;20025;-79
2023/09/10 10:46:26;;;;;;;8.32;5.20;;;32.40;39.20;;;;;;7574053;23;20006;-79
2023/09/10 10:49:30;;;;;;;7.88;5.70;;;32.80;38.70;;;;;;7573044;23;20025;-80
2023/09/10 10:52:31;;;;;;;7.80;5.20;;;33.10;38.10;;;;;;7573557;23;20021;-79
2023/09/10 10:55:33;;;;;;;10.35;4.93;;;33.40;37.40;;;;;;7572625;23;20014;-79
2023/09/10 10:58:37;;;;;;;8.07;4.75;;;33.60;37.10;;;;;;7573603;23;20017;-79
2023/09/10 11:01:39;;;;;;;8.35;4.57;;;33.90;36.60;;;;;;7573669;23;20013;-78
2023/09/10 11:04:53;;;;;;;6.78;4.68;;;34.10;36.40;;;;;;7572168;23;20044;-80
2023/09/10 11:08:30;;;;;;;7.78;4.57;;;34.50;35.80;;;;;;7573696;23;20424;-78
2023/09/10 11:11:41;;;;;;;7.00;4.78;;;34.80;35.40;;;;;;7548332;23;20020;-79
2023/09/10 11:15:12;;;;;;;5.43;4.40;;;35.10;34.90;;;;;;7596909;23;20094;-79
2023/09/10 11:18:35;;;;;;;6.20;4.43;;;35.40;34.50;;;;;;7451502;23;20016;-79
2023/09/10 11:21:54;;;;;;;5.53;4.40;;;35.70;33.90;;;;;;7450944;23;20015;-78
2023/09/10 11:25:01;;;;;;;5.57;4.32;;;36.10;33.10;;;;;;7450505;23;20059;-78
2023/09/10 11:28:02;;;;;;;8.32;4.25;;;36.20;32.60;;;;;;7427373;23;20547;-81
2023/09/10 11:31:03;;;;;;;5.30;4.38;;;36.30;32.20;;;;;;7427312;23;20327;-78
2023/09/10 11:34:23;;;;;;;9.38;4.65;;;36.60;31.90;;;;;;7451221;23;20035;-78
2023/09/10 11:37:25;;;;;;;7.43;4.80;;;36.80;31.30;;;;;;7449284;23;20206;-78
2023/09/10 11:40:27;;;;;;;5.65;4.20;;;37.00;30.80;;;;;;7427007;23;20505;-78
2023/09/10 11:43:29;;;;;;;8.68;4.30;;;37.30;30.70;;;;;;7427493;23;20115;-81
2023/09/10 11:46:29;;;;;;;6.05;4.18;;;37.70;30.30;;;;;;7425802;23;20079;-79
2023/09/10 11:49:30;;;;;;;5.00;4.28;;;38.00;29.90;;;;;;7450180;23;20060;-78
2023/09/10 11:52:31;;;;;;;5.55;3.70;;;38.20;29.60;;;;;;7450413;23;20031;-79
2023/09/10 11:55:33;;;;;;;6.65;4.38;;;38.50;29.30;;;;;;7559818;23;20398;-78
2023/09/10 11:58:35;;;;;;;7.00;4.68;;;38.80;28.60;;;;;;7570546;23;20010;-78
2023/09/10 12:01:36;;;;;;;8.60;4.57;;;39.00;28.30;;;;;;7597370;23;20364;-78
2023/09/10 12:04:36;;;;;;;5.95;4.43;;;39.30;27.80;;;;;;7572775;23;20028;-79
2023/09/10 12:07:37;;;;;;;5.30;3.67;;;39.60;27.60;;;;;;7574284;23;20014;-78
2023/09/10 12:10:38;;;;;;;5.25;4.18;;;39.90;27.10;;;;;;7572377;23;20060;-79
2023/09/10 12:13:40;;;;;;;4.55;3.70;;;40.40;26.50;;;;;;7598464;23;20494;-78
2023/09/10 12:16:41;;;;;;;7.18;3.45;;;40.80;25.90;;;;;;7568608;23;20002;-77
2023/09/10 12:19:42;;;;;;;6.53;3.22;;;41.10;24.80;;;;;;7593104;23;20018;-78
2023/09/10 12:22:43;;;;;;;6.80;3.83;;;41.00;24.50;;;;;;7569657;23;20423;-78
2023/09/10 12:25:52;;;;;;;8.13;4.28;;;41.20;24.30;;;;;;7596044;23;20021;-78
2023/09/10 12:28:52;;;;;;;4.63;3.58;;;41.40;24.50;;;;;;7547668;23;20041;-79
2023/09/10 12:31:56;;;;;;;5.15;3.42;;;41.60;23.10;;;;;;7544797;23;20169;-77
2023/09/10 12:34:57;;;;;;;4.82;3.33;;;41.90;23.10;;;;;;7594536;23;20430;-78
2023/09/10 12:38:00;;;;;;;7.75;3.35;;;42.40;22.50;;;;;;7596078;23;20069;-78
2023/09/10 12:41:01;;;;;;;4.85;3.25;;;42.90;21.80;;;;;;7595417;23;20059;-80
2023/09/10 12:44:02;;;;;;;5.47;3.63;;;43.50;21.30;;;;;;7593680;23;20009;-78
2023/09/10 12:47:03;;;;;;;4.75;3.10;;;44.00;20.70;;;;;;7593552;23;20017;-78
2023/09/10 12:50:06;;;;;;;3.53;3.05;;;44.40;20.50;;;;;;7569879;23;20419;-80
2023/09/10 12:53:08;;;;;;;5.80;3.00;;;45.00;20.10;;;;;;7594196;23;20080;-78
2023/09/10 12:56:08;;;;;;;6.70;3.50;;;45.60;19.20;;;;;;7567307;23;20009;-79
2023/09/10 12:59:12;;;;;;;4.22;3.03;;;46.10;18.80;;;;;;7566611;23;20832;-78
2023/09/10 13:02:13;;;;;;;5.70;3.30;;;46.30;19.00;;;;;;7568124;23;20137;-79
2023/09/10 13:05:19;;;;;;;3.28;2.53;;;46.80;18.10;;;;;;7567523;23;20009;-79
2023/09/10 13:08:20;;;;;;;4.15;2.60;;;47.20;17.40;;;;;;7594522;23;20030;-79
2023/09/10 13:11:21;;;;;;;5.03;2.22;;;47.50;16.60;;;;;;7593767;23;20489;-77
2023/09/10 13:14:22;;;;;;;2.85;2.55;;;47.70;16.00;;;;;;7566850;23;20037;-79
2023/09/10 13:17:23;;;;;;;3.63;2.22;;;47.60;15.80;;;;;;7568082;23;20010;-80
2023/09/10 13:20:26;;;;;;;3.38;2.25;;;47.70;15.50;;;;;;7566873;23;20037;-78
2023/09/10 13:23:26;;;;;;;2.08;1.73;;;47.80;15.30;;;;;;7566944;23;20049;-77
2023/09/10 13:26:27;;;;;;;3.28;2.75;;;47.90;14.70;;;;;;7592124;23;20009;-78
2023/09/10 13:29:28;;;;;;;2.53;1.92;;;47.60;14.00;;;;;;7566024;23;20398;-77
2023/09/10 13:32:29;;;;;;;4.32;1.83;;;47.20;13.90;;;;;;7592564;23;20076;-77
2023/09/10 13:35:32;;;;;;;5.28;2.13;;;46.80;14.10;;;;;;7566408;23;20056;-79
2023/09/10 13:38:32;;;;;;;2.85;2.10;;;46.60;14.40;;;;;;7591218;23;20404;-78
2023/09/10 13:41:33;;;;;;;3.08;2.38;;;46.70;14.30;;;;;;7591583;23;20088;-78
2023/09/10 13:44:34;;;;;;;2.33;2.10;;;46.50;14.40;;;;;;7592206;23;20326;-79
2023/09/10 13:47:35;;;;;;;3.40;2.47;;;45.30;15.00;;;;;;7566677;23;20098;-79
2023/09/10 13:50:36;;;;;;;2.92;2.30;;;44.10;15.50;;;;;;7594184;23;20006;-77
2023/09/10 13:53:41;;;;;;;3.25;2.38;;;42.80;16.30;;;;;;7594320;23;20085;-78
2023/09/10 13:56:42;;;;;;;3.70;2.50;;;41.60;17.20;;;;;;7569385;23;20195;-78
2023/09/10 13:59:43;;;;;;;2.85;2.15;;;40.50;17.90;;;;;;7568703;23;20440;-78
2023/09/10 14:02:46;;;;;;;3.63;2.20;;;39.70;18.20;;;;;;7595557;23;20475;-79
2023/09/10 14:05:47;;;;;;;3.33;2.80;;;39.10;18.80;;;;;;7569042;23;20333;-79
2023/09/10 14:08:48;;;;;;;3.35;2.67;;;38.60;19.10;;;;;;7545774;23;20105;-78
2023/09/10 14:11:49;;;;;;;5.13;2.70;;;38.20;19.50;;;;;;7594142;23;20030;-77
2023/09/10 14:14:50;;;;;;;3.75;2.53;;;37.80;20.00;;;;;;7595640;23;20014;-79
2023/09/10 14:17:51;;;;;;;4.13;2.40;;;37.50;20.40;;;;;;7569922;23;20044;-79
2023/09/10 14:20:52;;;;;;;4.38;2.65;;;37.10;20.80;;;;;;7570857;23;20024;-80
2023/09/10 14:23:53;;;;;;;3.00;2.60;;;36.90;21.10;;;;;;7597603;23;20037;-79
2023/09/10 14:26:55;;;;;;;4.68;2.55;;;36.70;21.40;;;;;;7570658;23;20094;-79
2023/09/10 14:29:56;;;;;;;4.72;2.53;;;36.50;21.70;;;;;;7570139;23;20061;-78
2023/09/10 14:32:57;;;;;;;9.02;3.05;;;36.30;21.90;;;;;;7568341;23;20720;-81
2023/09/10 14:35:57;;;;;;;6.53;2.90;;;36.20;22.20;;;;;;7568067;23;20014;-77
2023/09/10 14:38:58;;;;;;;3.22;2.65;;;36.00;22.50;;;;;;7568314;23;20145;-77
2023/09/10 14:41:59;;;;;;;5.70;2.70;;;35.80;22.60;;;;;;7594412;23;20668;-78
2023/09/10 14:45:00;;;;;;;4.20;2.67;;;35.70;22.80;;;;;;7570095;23;20010;-78
2023/09/10 14:48:01;;;;;;;4.05;2.85;;;35.70;23.00;;;;;;7594135;23;20052;-77
2023/09/10 14:51:01;;;;;;;3.45;2.50;;;35.60;23.10;;;;;;7593838;23;20074;-77
2023/09/10 14:54:02;;;;;;;4.22;2.60;;;35.60;22.90;;;;;;7594182;23;20158;-78
2023/09/10 14:57:04;;;;;;;4.82;2.38;;;35.50;22.70;;;;;;7592682;23;20420;-78
2023/09/10 15:00:05;;;;;;;2.75;2.45;;;35.50;22.70;;;;;;7568180;23;20026;-80
2023/09/10 15:03:06;;;;;;;2.97;2.40;;;35.50;22.90;;;;;;7593837;23;20006;-78
2023/09/10 15:06:08;;;;;;;2.90;2.20;;;35.50;23.10;;;;;;7593851;23;20010;-78
2023/09/10 15:09:09;;;;;;;2.67;2.25;;;35.40;23.10;;;;;;7568582;23;20093;-79
2023/09/10 15:12:10;;;;;;;3.38;2.42;;;35.40;23.20;;;;;;7567429;23;20012;-79
2023/09/10 15:15:11;;;;;;;7.72;2.40;;;35.40;23.00;;;;;;7568020;23;20037;-78
2023/09/10 15:18:16;;;;;;;3.38;2.47;;;35.30;22.70;;;;;;7568328;23;20006;-79
2023/09/10 15:21:17;;;;;;;2.75;1.90;;;35.30;22.60;;;;;;7594302;23;20014;-78
2023/09/10 15:24:18;;;;;;;5.47;2.35;;;35.30;22.20;;;;;;7567238;23;20033;-79
2023/09/10 15:27:18;;;;;;;3.85;2.45;;;35.30;21.60;;;;;;7594534;23;20067;-79
2023/09/10 15:30:19;;;;;;;3.50;2.33;;;35.30;21.00;;;;;;7543252;23;20014;-78
2023/09/10 15:33:20;;;;;;;2.53;2.10;;;35.30;21.10;;;;;;7567026;23;20010;-77
2023/09/10 15:36:21;;;;;;;3.25;2.05;;;35.30;21.30;;;;;;7593485;23;20044;-78
2023/09/10 15:39:23;;;;;;;2.35;2.00;;;35.30;21.50;;;;;;7566390;23;20018;-78
2023/09/10 15:42:24;;;;;;;2.75;2.05;;;35.30;21.60;;;;;;7566874;23;20010;-79
2023/09/10 15:45:25;;;;;;;4.97;2.15;;;35.40;21.70;;;;;;7567240;23;20057;-78
2023/09/10 15:48:25;;;;;;;3.60;2.65;;;35.30;21.50;;;;;;7567995;23;20065;-77